sensor_id;sensor_type;location;lat;lon;timestamp;pressure;altitude;pressure_sealevel;temperature;humidity
63715;BME280;49858;48.956;9.076;2022-07-10T00:00:01;99397.31;;;19.25;69.69
63715;BME280;49858;48.956;9.076;2022-07-10T00:02:38;99383.22;;;20.29;67.20
63715;BME280;49858;48.956;9.076;2022-07-10T00:05:07;99387.28;;;20.06;67.30
63715;BME280;49858;48.956;9.076;2022-07-10T00:07:34;99392.94;;;19.60;68.29
63715;BME280;49858;48.956;9.076;2022-07-10T00:10:03;99388.50;;;18.98;70.57
63715;BME280;49858;48.956;9.076;2022-07-10T00:12:29;99388.13;;;19.18;70.14
63715;BME280;49858;48.956;9.076;2022-07-10T00:14:56;99387.34;;;19.31;69.52
63715;BME280;49858;48.956;9.076;2022-07-10T00:17:23;99387.34;;;19.71;67.84
63715;BME280;49858;48.956;9.076;2022-07-10T00:19:50;99382.44;;;20.25;66.07
63715;BME280;49858;48.956;9.076;2022-07-10T00:22:20;99380.34;;;20.43;65.38
63715;BME280;49858;48.956;9.076;2022-07-10T00:24:46;99388.75;;;20.32;65.93
63715;BME280;49858;48.956;9.076;2022-07-10T00:27:13;99381.22;;;20.29;65.98
63715;BME280;49858;48.956;9.076;2022-07-10T00:29:40;99377.31;;;19.95;67.05
63715;BME280;49858;48.956;9.076;2022-07-10T00:32:07;99381.78;;;19.63;68.32
63715;BME280;49858;48.956;9.076;2022-07-10T00:34:34;99378.91;;;18.71;71.69
63715;BME280;49858;48.956;9.076;2022-07-10T00:37:01;99385.22;;;18.60;73.38
63715;BME280;49858;48.956;9.076;2022-07-10T00:39:29;99391.56;;;18.57;72.87
63715;BME280;49858;48.956;9.076;2022-07-10T00:42:05;99384.78;;;18.51;73.41
63715;BME280;49858;48.956;9.076;2022-07-10T00:44:33;99391.16;;;18.45;73.56
63715;BME280;49858;48.956;9.076;2022-07-10T00:47:00;99391.84;;;18.24;74.08
63715;BME280;49858;48.956;9.076;2022-07-10T00:49:27;99381.50;;;18.24;74.06
63715;BME280;49858;48.956;9.076;2022-07-10T00:51:54;99383.41;;;18.09;74.27
63715;BME280;49858;48.956;9.076;2022-07-10T00:54:21;99381.22;;;18.61;72.84
63715;BME280;49858;48.956;9.076;2022-07-10T00:56:49;99386.41;;;18.59;72.56
63715;BME280;49858;48.956;9.076;2022-07-10T00:59:17;99392.84;;;18.71;72.32
63715;BME280;49858;48.956;9.076;2022-07-10T01:01:44;99381.59;;;18.49;72.56
63715;BME280;49858;48.956;9.076;2022-07-10T01:04:11;99383.88;;;18.19;73.35
63715;BME280;49858;48.956;9.076;2022-07-10T01:06:38;99387.84;;;18.18;74.33
63715;BME280;49858;48.956;9.076;2022-07-10T01:09:04;99384.88;;;18.76;72.54
63715;BME280;49858;48.956;9.076;2022-07-10T01:11:33;99376.59;;;19.30;69.83
63715;BME280;49858;48.956;9.076;2022-07-10T01:14:01;99377.38;;;19.70;68.19
63715;BME280;49858;48.956;9.076;2022-07-10T01:16:29;99370.59;;;19.31;69.26
63715;BME280;49858;48.956;9.076;2022-07-10T01:18:56;99378.97;;;19.03;70.14
63715;BME280;49858;48.956;9.076;2022-07-10T01:21:25;99370.59;;;18.99;70.86
63715;BME280;49858;48.956;9.076;2022-07-10T01:23:51;99372.59;;;19.45;69.03
63715;BME280;49858;48.956;9.076;2022-07-10T01:26:19;99367.44;;;19.15;68.81
63715;BME280;49858;48.956;9.076;2022-07-10T01:28:49;99370.59;;;18.99;69.46
63715;BME280;49858;48.956;9.076;2022-07-10T01:31:17;99368.59;;;19.00;69.22
63715;BME280;49858;48.956;9.076;2022-07-10T01:33:44;99366.59;;;18.89;69.96
63715;BME280;49858;48.956;9.076;2022-07-10T01:36:11;99365.41;;;19.37;67.86
63715;BME280;49858;48.956;9.076;2022-07-10T01:38:39;99370.56;;;18.81;68.93
63715;BME280;49858;48.956;9.076;2022-07-10T01:41:05;99367.25;;;18.40;70.38
63715;BME280;49858;48.956;9.076;2022-07-10T01:43:34;99367.78;;;18.78;70.31
63715;BME280;49858;48.956;9.076;2022-07-10T01:46:00;99374.53;;;18.77;69.06
63715;BME280;49858;48.956;9.076;2022-07-10T01:48:28;99382.16;;;19.15;67.88
63715;BME280;49858;48.956;9.076;2022-07-10T01:50:54;99371.78;;;19.59;66.97
63715;BME280;49858;48.956;9.076;2022-07-10T01:53:21;99376.19;;;19.46;66.23
63715;BME280;49858;48.956;9.076;2022-07-10T01:55:49;99373.75;;;19.80;65.93
63715;BME280;49858;48.956;9.076;2022-07-10T01:58:16;99384.94;;;19.37;67.07
63715;BME280;49858;48.956;9.076;2022-07-10T02:00:43;99374.84;;;20.25;64.52
63715;BME280;49858;48.956;9.076;2022-07-10T02:03:10;99376.75;;;20.53;63.33
63715;BME280;49858;48.956;9.076;2022-07-10T02:05:54;99372.34;;;20.45;62.88
63715;BME280;49858;48.956;9.076;2022-07-10T02:08:21;99381.59;;;20.35;63.58
63715;BME280;49858;48.956;9.076;2022-07-10T02:10:49;99373.97;;;20.39;62.90
63715;BME280;49858;48.956;9.076;2022-07-10T02:13:16;99386.53;;;20.90;61.21
63715;BME280;49858;48.956;9.076;2022-07-10T02:15:45;99383.59;;;21.08;60.68
63715;BME280;49858;48.956;9.076;2022-07-10T02:18:12;99382.13;;;20.89;61.69
63715;BME280;49858;48.956;9.076;2022-07-10T02:20:38;99381.59;;;20.35;62.11
63715;BME280;49858;48.956;9.076;2022-07-10T02:23:05;99387.16;;;20.42;61.71
63715;BME280;49858;48.956;9.076;2022-07-10T02:25:32;99385.56;;;20.37;62.78
63715;BME280;49858;48.956;9.076;2022-07-10T02:28:01;99383.63;;;20.16;63.84
63715;BME280;49858;48.956;9.076;2022-07-10T02:30:27;99395.56;;;20.28;63.47
63715;BME280;49858;48.956;9.076;2022-07-10T02:32:54;99392.94;;;19.35;65.84
63715;BME280;49858;48.956;9.076;2022-07-10T02:35:20;99393.31;;;19.37;66.29
63715;BME280;49858;48.956;9.076;2022-07-10T02:37:47;99399.31;;;19.68;65.39
63715;BME280;49858;48.956;9.076;2022-07-10T02:40:14;99396.88;;;19.80;64.78
63715;BME280;49858;48.956;9.076;2022-07-10T02:42:40;99395.28;;;19.97;64.67
63715;BME280;49858;48.956;9.076;2022-07-10T02:45:09;99392.38;;;20.26;63.45
63715;BME280;49858;48.956;9.076;2022-07-10T02:47:36;99396.03;;;20.08;63.62
63715;BME280;49858;48.956;9.076;2022-07-10T02:50:03;99398.03;;;20.08;63.04
63715;BME280;49858;48.956;9.076;2022-07-10T02:52:30;99394.06;;;19.98;63.74
63715;BME280;49858;48.956;9.076;2022-07-10T02:54:57;99394.50;;;19.50;65.50
63715;BME280;49858;48.956;9.076;2022-07-10T02:57:24;99400.09;;;19.61;65.44
63715;BME280;49858;48.956;9.076;2022-07-10T02:59:51;99403.69;;;19.26;66.12
63715;BME280;49858;48.956;9.076;2022-07-10T03:02:19;99398.50;;;19.42;66.00
63715;BME280;49858;48.956;9.076;2022-07-10T03:04:45;99394.50;;;19.86;63.57
63715;BME280;49858;48.956;9.076;2022-07-10T03:07:12;99399.28;;;19.85;63.47
63715;BME280;49858;48.956;9.076;2022-07-10T03:09:39;99400.47;;;19.84;63.40
63715;BME280;49858;48.956;9.076;2022-07-10T03:12:06;99397.28;;;20.00;62.64
63715;BME280;49858;48.956;9.076;2022-07-10T03:14:33;99393.72;;;19.82;63.10
63715;BME280;49858;48.956;9.076;2022-07-10T03:17:00;99399.28;;;20.00;63.59
63715;BME280;49858;48.956;9.076;2022-07-10T03:19:27;99393.66;;;20.03;61.93
63715;BME280;49858;48.956;9.076;2022-07-10T03:21:54;99402.88;;;19.86;63.36
63715;BME280;49858;48.956;9.076;2022-07-10T03:24:21;99405.25;;;19.84;63.17
63715;BME280;49858;48.956;9.076;2022-07-10T03:26:47;99406.41;;;20.08;62.64
63715;BME280;49858;48.956;9.076;2022-07-10T03:29:14;99407.25;;;19.90;62.84
63715;BME280;49858;48.956;9.076;2022-07-10T03:31:41;99403.13;;;20.34;61.30
63715;BME280;49858;48.956;9.076;2022-07-10T03:34:08;99400.03;;;20.04;61.82
63715;BME280;49858;48.956;9.076;2022-07-10T03:36:36;99402.41;;;20.12;61.44
63715;BME280;49858;48.956;9.076;2022-07-10T03:39:03;99406.44;;;19.90;62.41
63715;BME280;49858;48.956;9.076;2022-07-10T03:41:30;99400.13;;;19.68;62.72
63715;BME280;49858;48.956;9.076;2022-07-10T03:43:56;99404.09;;;19.71;63.29
63715;BME280;49858;48.956;9.076;2022-07-10T03:46:23;99400.50;;;19.66;63.04
63715;BME280;49858;48.956;9.076;2022-07-10T03:48:49;99405.69;;;19.36;63.60
63715;BME280;49858;48.956;9.076;2022-07-10T03:51:17;99412.44;;;19.31;63.97
63715;BME280;49858;48.956;9.076;2022-07-10T03:53:45;99414.00;;;19.00;65.52
63715;BME280;49858;48.956;9.076;2022-07-10T03:56:11;99413.59;;;18.84;65.42
63715;BME280;49858;48.956;9.076;2022-07-10T03:58:58;99413.66;;;19.34;64.72
63715;BME280;49858;48.956;9.076;2022-07-10T04:01:24;99416.44;;;19.55;62.89
63715;BME280;49858;48.956;9.076;2022-07-10T04:03:51;99414.06;;;19.64;62.95
63715;BME280;49858;48.956;9.076;2022-07-10T04:06:17;99410.84;;;19.59;63.30
63715;BME280;49858;48.956;9.076;2022-07-10T04:08:46;99416.81;;;19.29;64.10
63715;BME280;49858;48.956;9.076;2022-07-10T04:11:12;99418.78;;;19.00;63.99
63715;BME280;49858;48.956;9.076;2022-07-10T04:13:39;99416.03;;;19.18;63.63
63715;BME280;49858;48.956;9.076;2022-07-10T04:16:06;99425.56;;;18.92;63.85
63715;BME280;49858;48.956;9.076;2022-07-10T04:18:35;99418.41;;;19.19;62.85
63715;BME280;49858;48.956;9.076;2022-07-10T04:21:02;99415.66;;;19.30;62.45
63715;BME280;49858;48.956;9.076;2022-07-10T04:23:28;99412.06;;;19.26;62.67
63715;BME280;49858;48.956;9.076;2022-07-10T04:25:57;99412.84;;;19.12;63.29
63715;BME280;49858;48.956;9.076;2022-07-10T04:28:24;99410.88;;;19.30;62.86
63715;BME280;49858;48.956;9.076;2022-07-10T04:30:51;99411.63;;;19.02;63.09
63715;BME280;49858;48.956;9.076;2022-07-10T04:33:17;99415.94;;;18.75;63.59
63715;BME280;49858;48.956;9.076;2022-07-10T04:35:44;99417.97;;;18.88;63.37
63715;BME280;49858;48.956;9.076;2022-07-10T04:38:11;99426.31;;;18.85;63.43
63715;BME280;49858;48.956;9.076;2022-07-10T04:40:37;99423.56;;;18.92;62.71
63715;BME280;49858;48.956;9.076;2022-07-10T04:43:05;99423.16;;;19.04;62.80
63715;BME280;49858;48.956;9.076;2022-07-10T04:45:32;99417.84;;;18.56;63.10
63715;BME280;49858;48.956;9.076;2022-07-10T04:47:59;99419.84;;;18.59;63.26
63715;BME280;49858;48.956;9.076;2022-07-10T04:50:25;99415.84;;;18.57;63.75
63715;BME280;49858;48.956;9.076;2022-07-10T04:52:52;99422.75;;;18.95;62.54
63715;BME280;49858;48.956;9.076;2022-07-10T04:55:19;99420.38;;;18.97;62.19
63715;BME280;49858;48.956;9.076;2022-07-10T04:57:46;99423.22;;;19.51;60.99
63715;BME280;49858;48.956;9.076;2022-07-10T05:00:15;99421.22;;;19.30;61.21
63715;BME280;49858;48.956;9.076;2022-07-10T05:02:42;99417.25;;;19.77;59.91
63715;BME280;49858;48.956;9.076;2022-07-10T05:05:09;99422.03;;;19.70;59.74
63715;BME280;49858;48.956;9.076;2022-07-10T05:07:35;99423.22;;;19.61;59.18
63715;BME280;49858;48.956;9.076;2022-07-10T05:10:02;99418.44;;;19.55;59.42
63715;BME280;49858;48.956;9.076;2022-07-10T05:12:29;99420.84;;;19.63;59.46
63715;BME280;49858;48.956;9.076;2022-07-10T05:14:56;99425.59;;;19.59;58.58
63715;BME280;49858;48.956;9.076;2022-07-10T05:17:25;99432.00;;;19.78;58.26
63715;BME280;49858;48.956;9.076;2022-07-10T05:19:52;99430.38;;;19.95;57.45
63715;BME280;49858;48.956;9.076;2022-07-10T05:22:21;99424.44;;;19.82;57.16
63715;BME280;49858;48.956;9.076;2022-07-10T05:24:48;99426.00;;;20.01;56.57
63715;BME280;49858;48.956;9.076;2022-07-10T05:27:14;99420.44;;;19.86;56.45
63715;BME280;49858;48.956;9.076;2022-07-10T05:29:41;99434.00;;;19.77;56.41
63715;BME280;49858;48.956;9.076;2022-07-10T05:32:08;99439.94;;;20.01;56.74
63715;BME280;49858;48.956;9.076;2022-07-10T05:34:36;99440.72;;;19.23;57.03
63715;BME280;49858;48.956;9.076;2022-07-10T05:37:03;99449.84;;;19.05;58.46
63715;BME280;49858;48.956;9.076;2022-07-10T05:39:30;99443.97;;;19.53;57.98
63715;BME280;49858;48.956;9.076;2022-07-10T05:41:57;99450.31;;;19.93;57.91
63715;BME280;49858;48.956;9.076;2022-07-10T05:44:24;99449.03;;;20.37;55.64
63715;BME280;49858;48.956;9.076;2022-07-10T05:46:50;99452.72;;;19.91;56.41
63715;BME280;49858;48.956;9.076;2022-07-10T05:49:17;99456.19;;;20.45;55.66
63715;BME280;49858;48.956;9.076;2022-07-10T05:51:45;99453.00;;;20.43;55.76
63715;BME280;49858;48.956;9.076;2022-07-10T05:54:12;99452.34;;;19.75;55.23
63715;BME280;49858;48.956;9.076;2022-07-10T05:56:39;99464.69;;;19.59;55.09
63715;BME280;49858;48.956;9.076;2022-07-10T05:59:05;99461.44;;;20.18;54.26
63715;BME280;49858;48.956;9.076;2022-07-10T06:01:32;99463.78;;;20.52;53.21
63715;BME280;49858;48.956;9.076;2022-07-10T06:03:59;99463.53;;;21.09;52.56
63715;BME280;49858;48.956;9.076;2022-07-10T06:06:26;99461.38;;;20.61;52.20
63715;BME280;49858;48.956;9.076;2022-07-10T06:08:54;99459.59;;;20.96;52.39
63715;BME280;49858;48.956;9.076;2022-07-10T06:11:21;99460.28;;;21.17;51.62
63715;BME280;49858;48.956;9.076;2022-07-10T06:13:48;99459.69;;;20.78;52.39
63715;BME280;49858;48.956;9.076;2022-07-10T06:16:14;99461.41;;;20.36;53.27
63715;BME280;49858;48.956;9.076;2022-07-10T06:18:41;99459.09;;;20.09;53.28
63715;BME280;49858;48.956;9.076;2022-07-10T06:21:09;99468.56;;;20.51;52.13
63715;BME280;49858;48.956;9.076;2022-07-10T06:23:35;99467.06;;;20.14;51.93
63715;BME280;49858;48.956;9.076;2022-07-10T06:26:05;99472.69;;;19.86;53.92
63715;BME280;49858;48.956;9.076;2022-07-10T06:28:34;99469.44;;;20.16;53.38
63715;BME280;49858;48.956;9.076;2022-07-10T06:31:00;99477.78;;;20.27;52.74
63715;BME280;49858;48.956;9.076;2022-07-10T06:33:27;99480.84;;;20.79;52.27
63715;BME280;49858;48.956;9.076;2022-07-10T06:35:54;99479.22;;;20.85;51.18
63715;BME280;49858;48.956;9.076;2022-07-10T06:38:20;99482.09;;;20.63;51.53
63715;BME280;49858;48.956;9.076;2022-07-10T06:40:47;99479.72;;;20.65;51.64
63715;BME280;49858;48.956;9.076;2022-07-10T06:43:15;99481.88;;;21.10;50.26
63715;BME280;49858;48.956;9.076;2022-07-10T06:45:42;99481.97;;;20.99;50.38
63715;BME280;49858;48.956;9.076;2022-07-10T06:48:09;99485.19;;;20.94;50.56
63715;BME280;49858;48.956;9.076;2022-07-10T06:50:35;99491.25;;;20.75;49.95
63715;BME280;49858;48.956;9.076;2022-07-10T06:53:03;99493.22;;;20.85;49.66
63715;BME280;49858;48.956;9.076;2022-07-10T06:55:30;99493.00;;;20.19;50.18
63715;BME280;49858;48.956;9.076;2022-07-10T06:57:58;99495.28;;;20.63;49.19
63715;BME280;49858;48.956;9.076;2022-07-10T07:00:26;99489.31;;;20.61;49.30
63715;BME280;49858;48.956;9.076;2022-07-10T07:02:53;99492.56;;;20.38;49.98
63715;BME280;49858;48.956;9.076;2022-07-10T07:05:20;99489.22;;;20.86;49.17
63715;BME280;49858;48.956;9.076;2022-07-10T07:07:48;99490.78;;;20.90;48.64
63715;BME280;49858;48.956;9.076;2022-07-10T07:10:15;99489.66;;;20.70;47.16
63715;BME280;49858;48.956;9.076;2022-07-10T07:12:42;99491.00;;;21.32;46.43
63715;BME280;49858;48.956;9.076;2022-07-10T07:15:09;99495.06;;;21.76;45.97
63715;BME280;49858;48.956;9.076;2022-07-10T07:17:41;99491.22;;;22.04;45.36
63715;BME280;49858;48.956;9.076;2022-07-10T07:20:22;99496.84;;;22.00;45.51
63715;BME280;49858;48.956;9.076;2022-07-10T07:23:06;99496.00;;;22.82;44.09
63715;BME280;49858;48.956;9.076;2022-07-10T07:25:40;99493.00;;;22.28;44.03
63715;BME280;49858;48.956;9.076;2022-07-10T07:28:08;99492.44;;;20.77;46.28
63715;BME280;49858;48.956;9.076;2022-07-10T07:30:35;99501.91;;;21.67;44.64
63715;BME280;49858;48.956;9.076;2022-07-10T07:33:03;99505.44;;;21.79;44.28
63715;BME280;49858;48.956;9.076;2022-07-10T07:35:29;99506.00;;;22.08;43.94
63715;BME280;49858;48.956;9.076;2022-07-10T07:37:56;99508.75;;;21.63;44.30
63715;BME280;49858;48.956;9.076;2022-07-10T07:40:23;99507.94;;;21.66;44.73
63715;BME280;49858;48.956;9.076;2022-07-10T07:42:51;99503.69;;;21.43;44.87
63715;BME280;49858;48.956;9.076;2022-07-10T07:45:19;99513.94;;;20.91;44.96
63715;BME280;49858;48.956;9.076;2022-07-10T07:47:48;99505.34;;;21.34;44.04
63715;BME280;49858;48.956;9.076;2022-07-10T07:50:17;99501.28;;;21.98;42.84
63715;BME280;49858;48.956;9.076;2022-07-10T07:52:45;99509.63;;;22.46;41.45
63715;BME280;49858;48.956;9.076;2022-07-10T07:55:12;99501.81;;;21.82;42.52
63715;BME280;49858;48.956;9.076;2022-07-10T07:57:40;99502.53;;;21.37;43.08
63715;BME280;49858;48.956;9.076;2022-07-10T08:00:08;99504.22;;;21.21;42.99
63715;BME280;49858;48.956;9.076;2022-07-10T08:02:38;99496.75;;;21.62;41.38
63715;BME280;49858;48.956;9.076;2022-07-10T08:05:06;99491.00;;;21.21;41.07
63715;BME280;49858;48.956;9.076;2022-07-10T08:07:37;99485.53;;;21.69;41.71
63715;BME280;49858;48.956;9.076;2022-07-10T08:10:06;99495.41;;;22.98;39.25
63715;BME280;49858;48.956;9.076;2022-07-10T08:12:34;99488.72;;;22.54;39.53
63715;BME280;49858;48.956;9.076;2022-07-10T08:15:01;99485.63;;;22.45;40.16
63715;BME280;49858;48.956;9.076;2022-07-10T08:17:28;99488.69;;;21.72;39.70
63715;BME280;49858;48.956;9.076;2022-07-10T08:19:54;99486.28;;;22.56;38.72
63715;BME280;49858;48.956;9.076;2022-07-10T08:22:21;99489.75;;;22.33;39.78
63715;BME280;49858;48.956;9.076;2022-07-10T08:24:49;99477.22;;;22.00;39.37
63715;BME280;49858;48.956;9.076;2022-07-10T08:27:16;99482.81;;;22.79;37.15
63715;BME280;49858;48.956;9.076;2022-07-10T08:29:42;99471.81;;;22.61;37.66
63715;BME280;49858;48.956;9.076;2022-07-10T08:32:09;99476.56;;;24.03;35.83
63715;BME280;49858;48.956;9.076;2022-07-10T08:34:36;99468.81;;;23.64;36.09
63715;BME280;49858;48.956;9.076;2022-07-10T08:37:04;99475.31;;;23.03;36.22
63715;BME280;49858;48.956;9.076;2022-07-10T08:39:32;99472.28;;;22.56;37.35
63715;BME280;49858;48.956;9.076;2022-07-10T08:42:02;99468.81;;;22.45;37.83
63715;BME280;49858;48.956;9.076;2022-07-10T08:44:31;99467.81;;;21.83;39.09
63715;BME280;49858;48.956;9.076;2022-07-10T08:46:57;99466.47;;;22.40;38.03
63715;BME280;49858;48.956;9.076;2022-07-10T08:49:27;99471.34;;;23.28;36.71
63715;BME280;49858;48.956;9.076;2022-07-10T08:51:57;99470.13;;;23.02;36.08
63715;BME280;49858;48.956;9.076;2022-07-10T08:54:28;99477.34;;;24.04;35.48
63715;BME280;49858;48.956;9.076;2022-07-10T08:56:56;99484.34;;;23.72;35.59
63715;BME280;49858;48.956;9.076;2022-07-10T08:59:25;99486.34;;;23.71;35.43
63715;BME280;49858;48.956;9.076;2022-07-10T09:01:52;99475.34;;;22.35;36.89
63715;BME280;49858;48.956;9.076;2022-07-10T09:04:20;99476.72;;;21.67;37.99
63715;BME280;49858;48.956;9.076;2022-07-10T09:06:48;99471.44;;;20.08;42.10
63715;BME280;49858;48.956;9.076;2022-07-10T09:09:15;99474.22;;;20.15;41.54
63715;BME280;49858;48.956;9.076;2022-07-10T09:11:41;99473.84;;;21.19;40.30
63715;BME280;49858;48.956;9.076;2022-07-10T09:14:10;99483.28;;;22.40;38.27
63715;BME280;49858;48.956;9.076;2022-07-10T09:16:40;99477.75;;;23.01;37.17
63715;BME280;49858;48.956;9.076;2022-07-10T09:19:18;99483.59;;;23.41;36.01
63715;BME280;49858;48.956;9.076;2022-07-10T09:21:46;99469.75;;;21.38;39.65
63715;BME280;49858;48.956;9.076;2022-07-10T09:24:13;99483.72;;;23.03;36.93
63715;BME280;49858;48.956;9.076;2022-07-10T09:26:42;99482.09;;;23.87;35.43
63715;BME280;49858;48.956;9.076;2022-07-10T09:29:11;99481.13;;;24.17;34.56
63715;BME280;49858;48.956;9.076;2022-07-10T09:31:53;99474.44;;;24.54;34.54
63715;BME280;49858;48.956;9.076;2022-07-10T09:34:35;99481.72;;;23.58;35.91
63715;BME280;49858;48.956;9.076;2022-07-10T09:37:23;99475.88;;;24.62;34.30
63715;BME280;49858;48.956;9.076;2022-07-10T09:39:55;99472.84;;;25.29;33.62
63715;BME280;49858;48.956;9.076;2022-07-10T09:42:33;99464.94;;;26.06;31.46
63715;BME280;49858;48.956;9.076;2022-07-10T09:45:17;99475.38;;;26.38;31.21
63715;BME280;49858;48.956;9.076;2022-07-10T09:47:56;99487.50;;;26.22;30.42
63715;BME280;49858;48.956;9.076;2022-07-10T09:50:25;99475.81;;;24.22;33.34
63715;BME280;49858;48.956;9.076;2022-07-10T09:52:53;99473.69;;;25.46;32.29
63715;BME280;49858;48.956;9.076;2022-07-10T09:55:21;99478.47;;;25.29;33.15
63715;BME280;49858;48.956;9.076;2022-07-10T09:57:54;99481.25;;;24.93;33.49
63715;BME280;49858;48.956;9.076;2022-07-10T10:00:27;99484.16;;;26.98;30.00
63715;BME280;49858;48.956;9.076;2022-07-10T10:02:57;99473.25;;;26.42;30.94
63715;BME280;49858;48.956;9.076;2022-07-10T10:05:32;99485.38;;;27.77;28.90
63715;BME280;49858;48.956;9.076;2022-07-10T10:08:01;99474.53;;;26.54;29.77
63715;BME280;49858;48.956;9.076;2022-07-10T10:10:32;99475.84;;;26.65;30.22
63715;BME280;49858;48.956;9.076;2022-07-10T10:13:03;99475.09;;;26.03;31.46
63715;BME280;49858;48.956;9.076;2022-07-10T10:15:31;99471.78;;;24.67;33.72
63715;BME280;49858;48.956;9.076;2022-07-10T10:18:02;99474.38;;;24.38;33.82
63715;BME280;49858;48.956;9.076;2022-07-10T10:20:30;99467.47;;;25.35;31.89
63715;BME280;49858;48.956;9.076;2022-07-10T10:23:04;99467.31;;;25.06;32.06
63715;BME280;49858;48.956;9.076;2022-07-10T10:25:32;99458.69;;;25.49;32.21
63715;BME280;49858;48.956;9.076;2022-07-10T10:28:01;99458.38;;;26.25;31.06
63715;BME280;49858;48.956;9.076;2022-07-10T10:30:29;99465.25;;;24.70;32.44
63715;BME280;49858;48.956;9.076;2022-07-10T10:32:58;99458.06;;;27.96;28.37
63715;BME280;49858;48.956;9.076;2022-07-10T10:35:46;99456.50;;;27.95;26.71
63715;BME280;49858;48.956;9.076;2022-07-10T10:38:13;99448.41;;;27.71;28.23
63715;BME280;49858;48.956;9.076;2022-07-10T10:40:41;99454.09;;;24.66;31.48
63715;BME280;49858;48.956;9.076;2022-07-10T10:43:18;99455.72;;;23.27;34.57
63715;BME280;49858;48.956;9.076;2022-07-10T10:45:46;99456.78;;;23.87;32.76
63715;BME280;49858;48.956;9.076;2022-07-10T10:48:14;99455.03;;;24.80;31.79
63715;BME280;49858;48.956;9.076;2022-07-10T10:50:42;99444.81;;;26.78;28.56
63715;BME280;49858;48.956;9.076;2022-07-10T10:53:14;99456.03;;;26.53;28.46
63715;BME280;49858;48.956;9.076;2022-07-10T10:58:46;99454.38;;;27.10;26.71
63715;BME280;49858;48.956;9.076;2022-07-10T11:01:24;99450.34;;;25.62;29.65
63715;BME280;49858;48.956;9.076;2022-07-10T11:04:16;99453.16;;;26.82;27.93
63715;BME280;49858;48.956;9.076;2022-07-10T11:06:46;99451.69;;;26.64;28.65
63715;BME280;49858;48.956;9.076;2022-07-10T11:09:24;99459.75;;;27.93;25.61
63715;BME280;49858;48.956;9.076;2022-07-10T11:11:59;99464.28;;;28.25;24.53
63715;BME280;49858;48.956;9.076;2022-07-10T11:14:26;99455.06;;;24.96;29.33
63715;BME280;49858;48.956;9.076;2022-07-10T11:16:54;99454.75;;;27.24;26.58
63715;BME280;49858;48.956;9.076;2022-07-10T11:19:22;99453.97;;;26.82;26.87
63715;BME280;49858;48.956;9.076;2022-07-10T11:21:58;99455.34;;;25.38;28.61
63715;BME280;49858;48.956;9.076;2022-07-10T11:24:40;99452.28;;;25.32;28.35
63715;BME280;49858;48.956;9.076;2022-07-10T11:27:18;99450.66;;;24.15;29.74
63715;BME280;49858;48.956;9.076;2022-07-10T11:29:56;99447.91;;;24.32;29.93
63715;BME280;49858;48.956;9.076;2022-07-10T11:32:23;99457.44;;;27.15;27.05
63715;BME280;49858;48.956;9.076;2022-07-10T11:34:50;99452.53;;;27.80;26.06
63715;BME280;49858;48.956;9.076;2022-07-10T11:37:17;99448.59;;;26.30;28.10
63715;BME280;49858;48.956;9.076;2022-07-10T11:39:47;99451.44;;;27.77;25.69
63715;BME280;49858;48.956;9.076;2022-07-10T11:42:14;99448.22;;;28.35;24.78
63715;BME280;49858;48.956;9.076;2022-07-10T11:44:40;99439.75;;;28.57;24.71
63715;BME280;49858;48.956;9.076;2022-07-10T11:47:07;99445.75;;;28.90;23.94
63715;BME280;49858;48.956;9.076;2022-07-10T11:49:34;99447.94;;;29.08;24.15
63715;BME280;49858;48.956;9.076;2022-07-10T11:52:10;99443.84;;;25.65;27.73
63715;BME280;49858;48.956;9.076;2022-07-10T11:54:37;99444.72;;;25.62;28.45
63715;BME280;49858;48.956;9.076;2022-07-10T11:57:07;99439.91;;;26.53;27.01
63715;BME280;49858;48.956;9.076;2022-07-10T11:59:34;99438.28;;;26.94;26.29
63715;BME280;49858;48.956;9.076;2022-07-10T12:02:01;99451.06;;;28.22;25.03
63715;BME280;49858;48.956;9.076;2022-07-10T12:04:30;99446.72;;;27.10;25.17
63715;BME280;49858;48.956;9.076;2022-07-10T12:06:57;99438.66;;;23.41;30.40
63715;BME280;49858;48.956;9.076;2022-07-10T12:09:24;99440.28;;;23.65;30.52
63715;BME280;49858;48.956;9.076;2022-07-10T12:12:01;99437.16;;;27.04;26.58
63715;BME280;49858;48.956;9.076;2022-07-10T12:14:30;99445.09;;;26.96;26.39
63715;BME280;49858;48.956;9.076;2022-07-10T12:16:58;99437.72;;;24.81;29.28
63715;BME280;49858;48.956;9.076;2022-07-10T12:19:27;99436.13;;;28.22;25.44
63715;BME280;49858;48.956;9.076;2022-07-10T12:21:56;99451.25;;;30.33;22.36
63715;BME280;49858;48.956;9.076;2022-07-10T12:24:24;99435.97;;;32.48;19.75
63715;BME280;49858;48.956;9.076;2022-07-10T12:26:52;99434.31;;;32.56;19.77
63715;BME280;49858;48.956;9.076;2022-07-10T12:29:22;99443.34;;;32.69;19.65
63715;BME280;49858;48.956;9.076;2022-07-10T12:31:51;99439.13;;;30.14;21.34
63715;BME280;49858;48.956;9.076;2022-07-10T12:34:20;99444.09;;;28.14;23.95
63715;BME280;49858;48.956;9.076;2022-07-10T12:36:49;99443.16;;;29.95;22.85
63715;BME280;49858;48.956;9.076;2022-07-10T12:39:18;99432.72;;;29.64;22.95
63715;BME280;49858;48.956;9.076;2022-07-10T12:41:58;99436.28;;;30.33;22.72
63715;BME280;49858;48.956;9.076;2022-07-10T12:44:39;99439.38;;;33.55;18.89
63715;BME280;49858;48.956;9.076;2022-07-10T12:47:08;99449.50;;;32.38;20.80
63715;BME280;49858;48.956;9.076;2022-07-10T12:49:50;99450.63;;;29.52;23.50
63715;BME280;49858;48.956;9.076;2022-07-10T12:52:24;99441.19;;;31.11;22.09
63715;BME280;49858;48.956;9.076;2022-07-10T12:55:05;99447.00;;;30.38;22.99
63715;BME280;49858;48.956;9.076;2022-07-10T12:57:45;99441.94;;;30.51;22.75
63715;BME280;49858;48.956;9.076;2022-07-10T13:00:13;99432.66;;;31.20;21.14
63715;BME280;49858;48.956;9.076;2022-07-10T13:02:41;99442.94;;;31.51;20.68
63715;BME280;49858;48.956;9.076;2022-07-10T13:05:08;99440.81;;;31.37;20.08
63715;BME280;49858;48.956;9.076;2022-07-10T13:07:36;99441.56;;;29.75;22.07
63715;BME280;49858;48.956;9.076;2022-07-10T13:10:05;99435.28;;;28.78;23.55